createdAt,value
2022-08-20T00:01:03.169Z,19.37
2022-08-20T00:03:32.659Z,19.38
2022-08-20T00:06:02.359Z,19.38
2022-08-20T00:08:29.611Z,19.35
2022-08-20T00:10:58.185Z,19.30
2022-08-20T00:13:29.563Z,19.27
2022-08-20T00:15:56.228Z,19.28
2022-08-20T00:18:23.455Z,19.26
2022-08-20T00:20:52.483Z,19.25
2022-08-20T00:23:19.662Z,19.23
2022-08-20T00:25:46.584Z,19.25
2022-08-20T00:28:14.009Z,19.25
2022-08-20T00:30:43.552Z,19.23
2022-08-20T00:33:14.288Z,19.21
2022-08-20T00:35:51.989Z,19.19
2022-08-20T00:38:18.965Z,19.19
2022-08-20T00:40:50.294Z,19.21
2022-08-20T00:43:38.954Z,19.22
2022-08-20T00:46:15.317Z,19.23
2022-08-20T00:48:44.368Z,19.23
2022-08-20T00:51:27.253Z,19.18
2022-08-20T00:54:09.655Z,19.17
2022-08-20T00:56:37.024Z,19.19
2022-08-20T00:59:11.266Z,19.21
2022-08-20T01:01:54.923Z,19.21
2022-08-20T01:04:24.989Z,19.20
2022-08-20T01:06:51.681Z,19.19
2022-08-20T01:09:18.198Z,19.16
2022-08-20T01:12:07.599Z,19.17
2022-08-20T01:14:34.482Z,19.13
2022-08-20T01:17:04.572Z,19.11
2022-08-20T01:19:40.990Z,19.09
2022-08-20T01:22:38.111Z,19.04
2022-08-20T01:25:12.806Z,19.02
2022-08-20T01:27:42.932Z,19.02
2022-08-20T01:30:10.188Z,19.03
2022-08-20T01:32:36.706Z,19.02
2022-08-20T01:35:04.588Z,19.04
2022-08-20T01:37:31.543Z,19.07
2022-08-20T01:39:58.513Z,19.06
2022-08-20T01:42:35.774Z,19.03
2022-08-20T01:45:04.424Z,18.96
2022-08-20T01:47:37.297Z,18.96
2022-08-20T01:50:21.025Z,18.98
2022-08-20T01:52:57.277Z,18.93
2022-08-20T01:55:24.106Z,18.90
2022-08-20T01:57:50.688Z,18.90
2022-08-20T02:00:20.000Z,18.87
2022-08-20T02:02:46.761Z,18.82
2022-08-20T02:05:13.975Z,18.76
2022-08-20T02:07:40.634Z,18.72
2022-08-20T02:10:10.922Z,18.70
2022-08-20T02:12:39.863Z,18.67
2022-08-20T02:15:09.581Z,18.66
2022-08-20T02:17:38.094Z,18.66
2022-08-20T02:20:13.710Z,18.68
2022-08-20T02:22:50.616Z,18.67
2022-08-20T02:25:19.334Z,18.67
2022-08-20T02:27:48.612Z,18.69
2022-08-20T02:30:43.779Z,18.67
2022-08-20T02:33:13.143Z,18.65
2022-08-20T02:35:42.748Z,18.64
2022-08-20T02:38:10.815Z,18.64
2022-08-20T02:40:37.712Z,18.63
2022-08-20T02:43:05.083Z,18.61
2022-08-20T02:45:37.188Z,18.61
2022-08-20T02:48:04.104Z,18.60
2022-08-20T02:50:30.684Z,18.60
2022-08-20T02:52:57.367Z,18.57
2022-08-20T02:55:28.211Z,18.54
2022-08-20T02:57:59.964Z,18.48
2022-08-20T03:00:32.115Z,18.46
2022-08-20T03:03:05.961Z,18.44
2022-08-20T03:05:32.533Z,18.43
2022-08-20T03:07:59.788Z,18.40
2022-08-20T03:10:34.051Z,18.42
2022-08-20T03:13:02.211Z,18.41
2022-08-20T03:15:33.848Z,18.39
2022-08-20T03:18:00.948Z,18.38
2022-08-20T03:20:28.387Z,18.40
2022-08-20T03:22:54.926Z,18.42
2022-08-20T03:25:22.589Z,18.42
2022-08-20T03:27:54.362Z,18.41
2022-08-20T03:30:23.121Z,18.42
2022-08-20T03:32:50.144Z,18.43
2022-08-20T03:35:18.331Z,18.41
2022-08-20T03:37:45.765Z,18.38
2022-08-20T03:40:18.629Z,18.35
2022-08-20T03:42:45.196Z,18.33
2022-08-20T03:45:14.276Z,18.35
2022-08-20T03:47:43.662Z,18.34
2022-08-20T03:50:10.913Z,18.33
2022-08-20T03:52:47.142Z,18.29
2022-08-20T03:55:13.863Z,18.24
2022-08-20T03:57:49.432Z,18.18
2022-08-20T04:00:20.674Z,18.14
2022-08-20T04:02:47.464Z,18.11
2022-08-20T04:05:14.362Z,18.07
2022-08-20T04:07:41.135Z,18.04
2022-08-20T04:10:09.937Z,18.00
2022-08-20T04:12:48.803Z,17.97
2022-08-20T04:15:20.127Z,17.92
2022-08-20T04:17:54.088Z,17.85
2022-08-20T04:20:23.775Z,17.81
2022-08-20T04:22:58.603Z,17.79
2022-08-20T04:25:27.759Z,17.79
2022-08-20T04:27:54.282Z,17.79
2022-08-20T04:30:23.379Z,17.82
2022-08-20T04:32:49.955Z,17.83
2022-08-20T04:35:18.079Z,17.86
2022-08-20T04:37:47.784Z,17.86
2022-08-20T04:40:37.446Z,17.86
2022-08-20T04:43:05.093Z,17.85
2022-08-20T04:45:32.982Z,17.86
2022-08-20T04:48:10.570Z,17.84
2022-08-20T04:50:41.777Z,17.86
2022-08-20T04:53:10.772Z,17.86
2022-08-20T04:55:40.776Z,17.87
2022-08-20T04:58:11.295Z,17.87
2022-08-20T05:00:38.762Z,17.87
2022-08-20T05:03:07.104Z,17.87
2022-08-20T05:05:35.248Z,17.87
2022-08-20T05:08:02.398Z,17.85
2022-08-20T05:10:29.345Z,17.83
2022-08-20T05:12:57.171Z,17.79
2022-08-20T05:15:24.806Z,17.75
2022-08-20T05:17:56.583Z,17.72
2022-08-20T05:20:23.884Z,17.70
2022-08-20T05:22:51.343Z,17.70
2022-08-20T05:25:17.876Z,17.68
2022-08-20T05:27:47.747Z,17.66
2022-08-20T05:30:14.800Z,17.67
2022-08-20T05:32:44.408Z,17.66
2022-08-20T05:35:11.676Z,17.63
2022-08-20T05:37:41.151Z,17.60
2022-08-20T05:40:14.424Z,17.68
2022-08-20T05:42:41.107Z,17.84
2022-08-20T05:45:11.142Z,18.41
2022-08-20T05:47:42.925Z,18.31
2022-08-20T05:50:19.933Z,18.17
2022-08-20T05:52:50.136Z,18.06
2022-08-20T05:55:16.556Z,18.03
2022-08-20T05:57:43.010Z,17.99
2022-08-20T06:00:13.472Z,18.48
2022-08-20T06:02:59.336Z,20.17
2022-08-20T06:05:26.109Z,21.29
2022-08-20T06:07:53.659Z,21.84
2022-08-20T06:10:22.911Z,22.20
2022-08-20T06:12:49.562Z,22.58
2022-08-20T06:15:15.979Z,23.00
2022-08-20T06:17:42.624Z,23.03
2022-08-20T06:20:09.916Z,23.08
2022-08-20T06:22:38.151Z,23.28
2022-08-20T06:25:06.727Z,22.61
2022-08-20T06:27:33.879Z,22.88
2022-08-20T06:30:02.225Z,23.14
2022-08-20T06:32:32.562Z,23.44
2022-08-20T06:35:02.004Z,23.41
2022-08-20T06:37:31.289Z,23.50
2022-08-20T06:40:03.086Z,23.63
2022-08-20T06:42:29.906Z,23.65
2022-08-20T06:44:56.546Z,23.85
2022-08-20T06:47:23.699Z,23.98
2022-08-20T06:49:50.200Z,24.15
2022-08-20T06:52:17.170Z,24.26
2022-08-20T06:54:45.059Z,24.17
2022-08-20T06:57:11.771Z,23.05
2022-08-20T06:59:38.372Z,22.21
2022-08-20T07:02:05.781Z,21.71
2022-08-20T07:04:32.377Z,21.47
2022-08-20T07:06:59.417Z,21.30
2022-08-20T07:09:26.740Z,21.22
2022-08-20T07:11:53.364Z,21.16
2022-08-20T07:14:20.625Z,21.17
2022-08-20T07:16:47.532Z,21.14
2022-08-20T07:19:14.520Z,21.11
2022-08-20T07:21:41.036Z,21.14
2022-08-20T07:24:09.594Z,20.95
2022-08-20T07:26:36.530Z,20.94
2022-08-20T07:29:03.616Z,20.94
2022-08-20T07:31:48.793Z,20.99
2022-08-20T07:34:15.240Z,21.07
2022-08-20T07:36:41.653Z,21.14
2022-08-20T07:39:08.274Z,21.15
2022-08-20T07:41:36.302Z,21.17
2022-08-20T07:44:13.600Z,21.25
2022-08-20T07:46:40.084Z,21.16
2022-08-20T07:49:10.075Z,21.17
2022-08-20T07:51:37.392Z,21.15
2022-08-20T07:54:06.074Z,21.24
2022-08-20T07:56:32.637Z,21.24
2022-08-20T07:59:01.486Z,21.25
2022-08-20T08:01:30.908Z,21.33
2022-08-20T08:03:59.313Z,21.35
2022-08-20T08:06:29.197Z,21.37
2022-08-20T08:09:01.807Z,21.41
2022-08-20T08:11:28.762Z,21.42
2022-08-20T08:13:55.248Z,21.49
2022-08-20T08:16:21.896Z,21.50
2022-08-20T08:18:53.233Z,21.51
2022-08-20T08:21:22.322Z,21.59
2022-08-20T08:23:48.791Z,21.62
2022-08-20T08:26:18.947Z,21.70
2022-08-20T08:28:46.718Z,21.89
2022-08-20T08:31:14.334Z,21.89
2022-08-20T08:33:41.723Z,21.84
2022-08-20T08:36:11.575Z,21.94
2022-08-20T08:38:40.051Z,22.07
2022-08-20T08:41:20.552Z,22.06
2022-08-20T08:43:50.660Z,22.12
2022-08-20T08:46:21.533Z,22.25
2022-08-20T08:48:53.265Z,22.24
2022-08-20T08:51:27.962Z,22.34
2022-08-20T08:53:56.877Z,22.35
2022-08-20T08:56:30.940Z,22.29
2022-08-20T08:59:08.580Z,22.23
2022-08-20T09:01:54.990Z,22.13
2022-08-20T09:04:28.460Z,22.15
2022-08-20T09:06:55.309Z,22.32
2022-08-20T09:09:32.940Z,22.41
2022-08-20T09:12:08.097Z,22.46
2022-08-20T09:14:35.907Z,22.63
2022-08-20T09:17:02.612Z,22.63
2022-08-20T09:19:29.138Z,22.50
2022-08-20T09:21:57.127Z,22.48
2022-08-20T09:24:23.872Z,22.48
2022-08-20T09:26:50.476Z,22.48
2022-08-20T09:29:17.712Z,22.68
2022-08-20T09:31:44.308Z,22.71
2022-08-20T09:34:11.703Z,22.69
2022-08-20T09:36:38.189Z,22.65
2022-08-20T09:39:04.631Z,22.70
2022-08-20T09:41:33.726Z,22.68
2022-08-20T09:44:01.094Z,22.62
2022-08-20T09:46:27.785Z,22.71
2022-08-20T09:48:54.980Z,22.80
2022-08-20T09:51:21.888Z,22.91
2022-08-20T09:53:49.005Z,22.94
2022-08-20T09:56:16.697Z,22.94
2022-08-20T09:58:50.456Z,22.92
2022-08-20T10:01:18.905Z,22.98
2022-08-20T10:03:49.800Z,22.99
2022-08-20T10:06:19.770Z,23.01
2022-08-20T10:08:47.189Z,23.14
2022-08-20T10:11:13.712Z,23.14
2022-08-20T10:13:40.800Z,23.19
2022-08-20T10:16:07.473Z,23.05
2022-08-20T10:18:35.268Z,23.09
2022-08-20T10:21:02.116Z,23.23
2022-08-20T10:23:28.933Z,23.36
2022-08-20T10:25:55.679Z,23.43
2022-08-20T10:28:22.390Z,23.50
2022-08-20T10:30:49.040Z,23.46
2022-08-20T10:33:15.532Z,23.43
2022-08-20T10:35:42.064Z,23.47
2022-08-20T10:38:08.618Z,23.39
2022-08-20T10:40:35.276Z,23.47
2022-08-20T10:43:04.048Z,23.59
2022-08-20T10:45:30.697Z,23.65
2022-08-20T10:48:01.234Z,23.71
2022-08-20T10:50:29.578Z,23.59
2022-08-20T10:52:57.892Z,23.16
2022-08-20T10:55:24.413Z,23.22
2022-08-20T10:57:51.226Z,23.44
2022-08-20T11:00:18.991Z,23.61
2022-08-20T11:02:45.525Z,23.56
2022-08-20T11:05:12.032Z,23.20
2022-08-20T11:07:50.661Z,23.55
2022-08-20T11:10:29.468Z,23.98
2022-08-20T11:12:56.571Z,23.88
2022-08-20T11:15:23.733Z,23.61
2022-08-20T11:17:50.247Z,23.71
2022-08-20T11:20:19.120Z,23.69
2022-08-20T11:22:45.853Z,23.52
2022-08-20T11:25:12.928Z,23.45
2022-08-20T11:27:42.949Z,23.25
2022-08-20T11:30:12.282Z,23.16
2022-08-20T11:32:38.928Z,23.03
2022-08-20T11:35:24.458Z,23.01
2022-08-20T11:37:55.557Z,23.68
2022-08-20T11:40:23.387Z,23.98
2022-08-20T11:43:13.184Z,24.24
2022-08-20T11:45:37.638Z,24.16
2022-08-20T11:48:04.698Z,23.99
2022-08-20T11:50:31.214Z,23.93
2022-08-20T11:52:57.799Z,23.68
2022-08-20T11:55:28.967Z,23.59
2022-08-20T11:57:59.812Z,23.60
2022-08-20T12:00:33.248Z,23.40
2022-08-20T12:03:01.951Z,23.29
2022-08-20T12:05:29.914Z,23.29
2022-08-20T12:07:57.659Z,23.46
2022-08-20T12:10:26.334Z,23.53
2022-08-20T12:12:52.957Z,23.48
2022-08-20T12:15:19.984Z,23.47
2022-08-20T12:17:46.545Z,23.49
2022-08-20T12:20:14.371Z,23.43
2022-08-20T12:22:41.144Z,23.39
2022-08-20T12:25:08.551Z,23.80
2022-08-20T12:27:36.929Z,24.32
2022-08-20T12:30:10.148Z,24.17
2022-08-20T12:32:36.888Z,23.84
2022-08-20T12:35:05.226Z,23.80
2022-08-20T12:37:32.233Z,23.84
2022-08-20T12:40:00.766Z,24.25
2022-08-20T12:42:30.285Z,24.68
2022-08-20T12:44:57.828Z,24.76
2022-08-20T12:47:28.464Z,24.63
2022-08-20T12:49:57.978Z,24.49
2022-08-20T12:52:25.694Z,24.27
2022-08-20T12:54:53.445Z,24.45
2022-08-20T12:57:29.481Z,24.49
2022-08-20T12:59:57.507Z,24.36
2022-08-20T13:02:26.057Z,24.24
2022-08-20T13:04:52.565Z,24.10
2022-08-20T13:07:19.182Z,24.10
2022-08-20T13:09:45.748Z,24.09
2022-08-20T13:12:14.251Z,24.00
2022-08-20T13:14:41.784Z,23.95
2022-08-20T13:17:09.031Z,23.95
2022-08-20T13:19:38.022Z,24.06
2022-08-20T13:22:05.544Z,24.25
2022-08-20T13:24:32.255Z,24.32
2022-08-20T13:27:13.817Z,24.22
2022-08-20T13:29:49.929Z,24.29
2022-08-20T13:32:18.019Z,24.31
2022-08-20T13:34:45.405Z,24.23
2022-08-20T13:37:25.564Z,24.11
2022-08-20T13:39:55.686Z,24.05
2022-08-20T13:42:22.313Z,24.07
2022-08-20T13:44:49.768Z,24.03
2022-08-20T13:47:21.968Z,24.20
2022-08-20T13:49:54.572Z,24.45
2022-08-20T13:52:21.205Z,24.61
2022-08-20T13:54:47.958Z,24.44
2022-08-20T13:57:17.044Z,24.41
2022-08-20T13:59:45.755Z,24.54
2022-08-20T14:02:13.545Z,24.56
2022-08-20T14:04:40.726Z,24.31
2022-08-20T14:07:17.840Z,24.49
2022-08-20T14:09:47.120Z,24.75
2022-08-20T14:12:14.931Z,24.66
2022-08-20T14:14:42.244Z,24.53
2022-08-20T14:17:24.639Z,24.60
2022-08-20T14:20:00.264Z,24.63
2022-08-20T14:22:27.721Z,24.99
2022-08-20T14:24:54.375Z,25.32
2022-08-20T14:27:22.378Z,25.41
2022-08-20T14:29:50.877Z,25.11
2022-08-20T14:32:18.007Z,25.13
2022-08-20T14:34:44.879Z,24.94
2022-08-20T14:37:13.012Z,24.74
2022-08-20T14:39:40.046Z,24.45
2022-08-20T14:42:07.008Z,24.33
2022-08-20T14:44:33.873Z,24.20
2022-08-20T14:47:22.509Z,24.20
2022-08-20T14:49:50.688Z,24.38
2022-08-20T14:52:18.579Z,24.48
2022-08-20T14:54:45.978Z,24.64
2022-08-20T14:57:15.055Z,24.86
2022-08-20T14:59:42.740Z,24.77
2022-08-20T15:02:11.467Z,24.70
2022-08-20T15:04:38.308Z,24.53
2022-08-20T15:07:13.953Z,24.42
2022-08-20T15:09:42.924Z,24.46
2022-08-20T15:12:09.451Z,24.51
2022-08-20T15:14:35.961Z,24.37
2022-08-20T15:17:07.059Z,24.12
2022-08-20T15:19:35.738Z,24.02
2022-08-20T15:22:02.232Z,24.17
2022-08-20T15:24:28.639Z,24.15
2022-08-20T15:26:55.137Z,24.24
2022-08-20T15:29:23.263Z,24.21
2022-08-20T15:31:50.856Z,24.32
2022-08-20T15:34:17.688Z,24.30
2022-08-20T15:36:45.229Z,24.09
2022-08-20T15:39:11.716Z,24.03
2022-08-20T15:41:38.340Z,23.68
2022-08-20T15:44:04.967Z,23.38
2022-08-20T15:46:37.561Z,23.24
2022-08-20T15:49:11.301Z,23.25
2022-08-20T15:51:46.479Z,23.53
2022-08-20T15:54:22.907Z,23.76
2022-08-20T15:57:06.381Z,23.59
2022-08-20T15:59:48.187Z,23.30
2022-08-20T16:02:48.674Z,23.00
2022-08-20T16:05:38.821Z,22.81
2022-08-20T16:08:30.945Z,22.71
2022-08-20T16:11:29.235Z,22.78
2022-08-20T16:14:16.780Z,22.67
2022-08-20T16:16:50.125Z,22.61
2022-08-20T16:19:31.801Z,22.47
2022-08-20T16:21:59.146Z,22.36
2022-08-20T16:24:25.603Z,22.30
2022-08-20T16:27:27.578Z,22.32
2022-08-20T16:29:58.846Z,22.31
2022-08-20T16:32:31.561Z,22.27
2022-08-20T16:35:29.559Z,22.32
2022-08-20T16:38:05.566Z,22.38
2022-08-20T16:40:38.943Z,22.41
2022-08-20T16:43:07.244Z,22.37
2022-08-20T16:45:43.511Z,22.35
2022-08-20T16:48:16.823Z,22.33
2022-08-20T16:50:57.838Z,22.36
2022-08-20T16:53:25.708Z,22.48
2022-08-20T16:55:52.880Z,22.52
2022-08-20T16:58:19.832Z,22.58
2022-08-20T17:00:46.745Z,22.65
2022-08-20T17:03:33.481Z,22.73
2022-08-20T17:06:40.421Z,22.65
2022-08-20T17:09:11.381Z,22.54
2022-08-20T17:11:38.336Z,22.40
2022-08-20T17:14:12.998Z,22.29
2022-08-20T17:16:51.969Z,22.21
2022-08-20T17:19:30.124Z,22.14
2022-08-20T17:22:08.698Z,22.07
2022-08-20T17:24:37.629Z,22.03
2022-08-20T17:27:11.021Z,22.00
2022-08-20T17:29:53.725Z,21.98
2022-08-20T17:32:26.359Z,21.93
2022-08-20T17:34:58.700Z,21.87
2022-08-20T17:37:33.532Z,21.86
2022-08-20T17:40:14.454Z,21.85
2022-08-20T17:43:02.917Z,21.76
2022-08-20T17:45:35.582Z,21.67
2022-08-20T17:48:04.848Z,21.65
2022-08-20T17:50:39.531Z,21.62
2022-08-20T17:53:14.179Z,21.57
2022-08-20T17:55:40.956Z,21.51
2022-08-20T17:58:12.296Z,21.45
2022-08-20T18:00:38.985Z,21.41
2022-08-20T18:03:15.760Z,21.38
2022-08-20T18:05:43.533Z,21.35
2022-08-20T18:08:14.843Z,21.27
2022-08-20T18:10:52.761Z,21.21
2022-08-20T18:13:23.576Z,21.17
2022-08-20T18:15:54.927Z,21.15
2022-08-20T18:18:56.512Z,21.10
2022-08-20T18:21:52.615Z,21.02
2022-08-20T18:24:26.322Z,20.99
2022-08-20T18:27:00.889Z,20.95
2022-08-20T18:29:34.146Z,20.89
2022-08-20T18:32:05.612Z,20.81
2022-08-20T18:34:35.158Z,20.73
2022-08-20T18:37:21.884Z,20.63
2022-08-20T18:39:50.088Z,20.53
2022-08-20T18:42:28.811Z,20.46
2022-08-20T18:44:56.065Z,20.44
2022-08-20T18:47:32.566Z,20.37
2022-08-20T18:50:16.774Z,20.28
2022-08-20T18:52:50.464Z,20.21
2022-08-20T18:55:31.482Z,20.13
2022-08-20T18:58:01.869Z,20.08
2022-08-20T19:00:38.690Z,20.04
2022-08-20T19:03:07.888Z,19.97
2022-08-20T19:05:40.018Z,19.86
2022-08-20T19:08:07.910Z,19.77
2022-08-20T19:10:46.580Z,19.72
2022-08-20T19:13:38.751Z,19.68
2022-08-20T19:16:11.541Z,19.63
2022-08-20T19:18:46.950Z,19.58
2022-08-20T19:21:19.000Z,19.51
2022-08-20T19:23:50.808Z,19.45
2022-08-20T19:26:25.908Z,19.40
2022-08-20T19:29:02.513Z,19.28
2022-08-20T19:31:33.115Z,19.21
2022-08-20T19:34:20.223Z,19.17
2022-08-20T19:37:28.141Z,19.09
2022-08-20T19:39:50.913Z,18.96
2022-08-20T19:42:42.168Z,18.79
2022-08-20T19:45:18.461Z,18.65
2022-08-20T19:47:54.350Z,18.57
2022-08-20T19:51:12.596Z,18.49
2022-08-20T19:53:46.848Z,18.44
2022-08-20T19:56:16.782Z,18.33
2022-08-20T19:58:44.321Z,18.20
2022-08-20T20:01:18.141Z,18.05
2022-08-20T20:03:59.373Z,17.99
2022-08-20T20:06:27.396Z,17.95
2022-08-20T20:09:06.729Z,17.83
2022-08-20T20:11:41.643Z,17.77
2022-08-20T20:14:11.034Z,17.73
2022-08-20T20:16:39.684Z,17.69
2022-08-20T20:19:25.869Z,17.69
2022-08-20T20:22:26.819Z,17.73
2022-08-20T20:25:30.954Z,17.70
2022-08-20T20:28:05.936Z,17.67
2022-08-20T20:30:34.215Z,17.64
2022-08-20T20:33:10.894Z,17.44
2022-08-20T20:35:37.456Z,17.40
2022-08-20T20:38:11.839Z,17.35
2022-08-20T20:40:51.497Z,17.22
2022-08-20T20:43:37.367Z,17.19
2022-08-20T20:46:17.574Z,17.12
2022-08-20T20:48:50.507Z,17.06
2022-08-20T20:51:33.008Z,16.95
2022-08-20T20:54:08.874Z,16.90
2022-08-20T20:56:43.810Z,16.94
2022-08-20T20:59:13.384Z,16.97
2022-08-20T21:01:48.719Z,16.97
2022-08-20T21:04:18.639Z,17.01
2022-08-20T21:06:45.304Z,16.99
2022-08-20T21:09:12.431Z,16.96
2022-08-20T21:11:41.243Z,16.90
2022-08-20T21:14:07.980Z,16.78
2022-08-20T21:16:34.474Z,16.70
2022-08-20T21:19:04.729Z,16.63
2022-08-20T21:21:31.575Z,16.59
2022-08-20T21:23:58.242Z,16.61
2022-08-20T21:26:35.629Z,16.56
2022-08-20T21:29:06.545Z,16.52
2022-08-20T21:31:43.819Z,16.53
2022-08-20T21:34:17.997Z,16.49
2022-08-20T21:36:52.603Z,16.47
2022-08-20T21:45:54.055Z,16.33
2022-08-20T21:48:20.499Z,16.16
2022-08-20T21:50:47.024Z,16.07
2022-08-20T21:53:13.549Z,15.95
2022-08-20T21:55:40.869Z,15.90
2022-08-20T21:58:08.513Z,15.82
2022-08-20T22:00:53.434Z,15.72
2022-08-20T22:03:22.744Z,15.65
2022-08-20T22:05:50.223Z,15.69
2022-08-20T22:08:17.621Z,15.71
2022-08-20T22:10:44.602Z,15.70
2022-08-20T22:13:11.554Z,15.75
2022-08-20T22:15:38.093Z,15.72
2022-08-20T22:18:04.756Z,15.65
2022-08-20T22:20:31.587Z,15.59
2022-08-20T22:22:58.668Z,15.55
2022-08-20T22:25:25.114Z,15.52
2022-08-20T22:27:51.505Z,15.50
2022-08-20T22:30:17.984Z,15.50
2022-08-20T22:32:51.909Z,15.48
2022-08-20T22:35:19.581Z,15.45
2022-08-20T22:37:46.140Z,15.44
2022-08-20T22:40:12.744Z,15.42
2022-08-20T22:42:39.242Z,15.39
2022-08-20T22:45:14.598Z,15.36
2022-08-20T22:47:43.054Z,15.35
2022-08-20T22:50:11.927Z,15.36
2022-08-20T22:52:40.084Z,15.32
2022-08-20T22:55:07.335Z,15.28
2022-08-20T22:57:36.850Z,15.24
2022-08-20T23:00:06.524Z,15.18
2022-08-20T23:02:33.082Z,15.15
2022-08-20T23:04:59.613Z,15.14
2022-08-20T23:07:26.256Z,15.12
2022-08-20T23:09:52.826Z,15.12
2022-08-20T23:12:20.919Z,15.09
2022-08-20T23:14:47.609Z,15.09
2022-08-20T23:17:19.005Z,15.08
2022-08-20T23:19:47.516Z,15.05
2022-08-20T23:22:14.208Z,15.03
2022-08-20T23:24:41.115Z,14.98
2022-08-20T23:27:11.710Z,14.95
2022-08-20T23:29:38.728Z,14.92
2022-08-20T23:32:05.375Z,14.94
2022-08-20T23:34:32.102Z,14.95
2022-08-20T23:37:00.124Z,14.93
2022-08-20T23:39:27.682Z,14.90
2022-08-20T23:41:56.098Z,14.83
2022-08-20T23:44:26.359Z,14.80
2022-08-20T23:47:00.522Z,14.76
2022-08-20T23:49:29.004Z,14.73
2022-08-20T23:51:56.018Z,14.66
2022-08-20T23:54:22.674Z,14.61
2022-08-20T23:56:49.522Z,14.51
2022-08-20T23:59:16.557Z,14.44
